Rhinelander Oneida County Airport
KRHI : now visible

Airfield :











YOU CAN JOIN US ON...

 
LOGIN :

Register | Disclaimer

   EN    FR    IT 

 









Legend :    VFR   Marginal VFR   IFR   Intensive IFR   Very Intensive IFR
Visi :
Ceiling :
>= 8 km
>= 3000ft
5 to 8 km
1000 to 3000 ft
1500m to 5 km
500 to 1000 ft
800 to 1500m
200 to 500 ft
< 800m
< 200 ft
Symbols :   Thunderstorms  Fog  Heavy snow  Heavy precipitations  Wind > 20 kt






- Airport Elevation : 1624 ft
- IATA code : RHI


KRHI - Rhinelander Oneida County

CURRENT METAR :
  • 211053Z AUTO 04004KT 10SM CLR 15/13 A3019 RMK AO2 SLP222 T01500128

EXPIRED METARs :
  • 211011Z AUTO 03003KT 10SM FEW018 BKN055 16/14 A3019 RMK AO2 T01610144
  • 210953Z AUTO 04003KT 10SM BKN018 16/14 A3018 RMK AO2 SLP217 T01610144
  • 210918Z AUTO 04003KT 8SM SCT006 OVC016 17/16 A3018 RMK AO2 T01670156
  • 210853Z AUTO 04003KT 6SM BR BKN005 OVC015 17/16 A3016 RMK AO2 SLP207 T01720161 53002
  • 210831Z AUTO 03003KT 7SM BKN005 BKN015 17/16 A3016 RMK AO2 T01720161
  • 210805Z AUTO 06004KT 8SM SCT005 SCT014 17/16 A3016 RMK AO2 T01720161
  • 210753Z AUTO 06004KT 8SM BKN004 BKN013 18/17 A3016 RMK AO2 SLP205 T01780167
  • 210731Z AUTO 06005KT 5SM BR OVC004 18/17 A3016 RMK AO2 T01780167
  • 210710Z AUTO 06003KT 7SM BKN005 17/16 A3016 RMK AO2 T01720161
  • 210701Z AUTO 04003KT 5SM BR SCT005 17/16 A3015 RMK AO2 T01720161
  • 210636Z AUTO 00000KT 1 1/2SM BR BKN002 17/16 A3015 RMK AO2 T01670156

TAF KRHI
Valid from the 21 at 10:00 until the 22 at 06:00 UTC


211017Z 2110/2206 05003KT P6SM SCT015 BKN050
TEMPO 2110/2112 5SM BR BKN015
FM211300 07003KT P6SM SCT250
KZMP FIR / North America



MET'MAP, your aeronautical weather chart ! - Copyright ORBIFLY December 2007 - Disclaimer

ORBIFLY MET'MAP TEAM :

Programming & Development : Alexandra Zaïnal
Original concept : Baudouin d'Aumeries
Technical & hardware support : Manuel Goepfert
Assistance : Marc-Olivier Méhu




SOURCES & CREDITS :

   NOAA       Earth
Advisory